»·PEaware :: N1718G KRNO-KLAS

N1718G :: KRNO-KLAS

FLIGHT INFORMATION

Flight Status: Arrived
Operator: Privately registered:
United States
More flights under this callsign
Pilot: Spencer M. (27733)
Aircraft: ECLIPSE 500
(EA50)
More flights by this aircraft type
Origin: KRNO Reno/Tahoe Intl
United States
Destination: KLAS McCarran Intl
United States
More flights between these airports :: More routes between these airports
Route: ZEFFR6 PESKE LIDAT BTY SUNST4
File this flight plan on PilotEdge
Remarks:
Altitude:
(Current/Filed)
23,000ft
Speed:
(Current/Filed)
300kts
Departed: 17-Sep-20 09:39 AM
Arrived: 17-Sep-20 10:54 AM
Distance/Time
Traveled:
299nm/1:15
Distance/Time
To Go:
Arrived

Flight Plot

Page will automatically refresh every two minutes.

Flight plan parsing failed; only flown route is shown


Map Options




Map Legend


Flown Route
Filed Route
Departure Airport
Arrival Airport
Navaid (VOR, NDB)
Fix

Horizontal Profiles

Position Reports

Time Latitude Longitude Heading Altitude Ground
Speed
17-Sep-20 09:11 39.506200 -119.764672 269 4418ft 0kts
17-Sep-20 09:12 39.506200 -119.764672 269 4418ft 0kts
17-Sep-20 09:13 39.506200 -119.764672 269 4418ft 0kts
17-Sep-20 09:14 39.506200 -119.764672 269 4418ft 0kts
17-Sep-20 09:15 39.506200 -119.764672 269 4418ft 0kts
17-Sep-20 09:16 39.506200 -119.764672 269 4418ft 0kts
17-Sep-20 09:17 39.506200 -119.764672 269 4418ft 0kts
17-Sep-20 09:18 39.506200 -119.764672 269 4418ft 0kts
17-Sep-20 09:19 39.506200 -119.764672 269 4418ft 0kts
17-Sep-20 09:20 39.506200 -119.764672 269 4418ft 0kts
17-Sep-20 09:21 39.506200 -119.764672 269 4418ft 0kts
17-Sep-20 09:22 39.506200 -119.764672 269 4418ft 0kts
17-Sep-20 09:23 39.506200 -119.764672 269 4418ft 0kts
17-Sep-20 09:24 39.506200 -119.764672 269 4418ft 0kts
17-Sep-20 09:25 39.506200 -119.764672 269 4418ft 0kts
17-Sep-20 09:26 39.506200 -119.764672 269 4418ft 0kts
17-Sep-20 09:27 39.506200 -119.764672 269 4418ft 0kts
17-Sep-20 09:28 39.506424 -119.764939 353 4418ft 4kts
17-Sep-20 09:29 39.508025 -119.765704 359 4418ft 8kts
17-Sep-20 09:30 39.510509 -119.765209 20 4418ft 10kts
17-Sep-20 09:31 39.513508 -119.765210 340 4418ft 7kts
17-Sep-20 09:32 39.513747 -119.765713 270 4418ft 0kts
17-Sep-20 09:33 39.513747 -119.765713 270 4418ft 0kts
17-Sep-20 09:34 39.513747 -119.765713 270 4418ft 0kts
17-Sep-20 09:35 39.513747 -119.765713 270 4418ft 0kts
17-Sep-20 09:36 39.513747 -119.765713 270 4418ft 0kts
17-Sep-20 09:37 39.513747 -119.765713 270 4418ft 0kts
17-Sep-20 09:38 39.509619 -119.766763 179 4418ft 72kts
17-Sep-20 09:39 39.474445 -119.765762 175 5209ft 164kts
17-Sep-20 09:40 39.423588 -119.767198 183 6829ft 208kts
17-Sep-20 09:41 39.362030 -119.768836 183 8346ft 231kts
17-Sep-20 09:42 39.302770 -119.745615 134 9868ft 246kts
17-Sep-20 09:43 39.257110 -119.679090 135 11017ft 256kts
17-Sep-20 09:44 39.206813 -119.606574 135 11032ft 284kts
17-Sep-20 09:45 39.152872 -119.529095 135 11029ft 296kts
17-Sep-20 09:46 39.095585 -119.457731 139 12212ft 274kts
17-Sep-20 09:47 39.041236 -119.390456 139 13306ft 269kts
17-Sep-20 09:48 38.987829 -119.324380 140 14386ft 264kts
17-Sep-20 09:49 38.934612 -119.258677 140 15057ft 275kts
17-Sep-20 09:50 38.879947 -119.191228 140 15949ft 271kts
17-Sep-20 09:51 38.825906 -119.124695 140 16861ft 268kts
17-Sep-20 09:52 38.772525 -119.058944 138 17772ft 265kts
17-Sep-20 09:53 38.722414 -118.990596 138 18681ft 262kts
17-Sep-20 09:54 38.672380 -118.922537 138 19776ft 266kts
17-Sep-20 09:55 38.621160 -118.852996 138 20886ft 270kts
17-Sep-20 09:56 38.569885 -118.783505 139 22115ft 266kts
17-Sep-20 09:57 38.519369 -118.715231 139 22993ft 268kts
17-Sep-20 09:59 38.466817 -118.644407 139 22997ft 280kts
17-Sep-20 10:00 38.412086 -118.570769 138 22997ft 293kts
17-Sep-20 10:01 38.355040 -118.494176 138 22996ft 302kts
17-Sep-20 10:02 38.296700 -118.416035 138 22996ft 308kts
17-Sep-20 10:03 38.237961 -118.337550 139 22993ft 303kts
17-Sep-20 10:04 38.180121 -118.260501 139 22993ft 304kts
17-Sep-20 10:05 38.120463 -118.181226 139 22992ft 315kts
17-Sep-20 10:06 38.059171 -118.099952 139 23000ft 322kts
17-Sep-20 10:07 37.996979 -118.017718 139 23005ft 325kts
17-Sep-20 10:08 37.934108 -117.934792 139 22999ft 328kts
17-Sep-20 10:09 37.870634 -117.851302 138 22998ft 329kts
17-Sep-20 10:10 37.807049 -117.767889 138 23019ft 330kts
17-Sep-20 10:11 37.743264 -117.684436 138 23047ft 331kts
17-Sep-20 10:12 37.679223 -117.600867 138 23076ft 331kts
17-Sep-20 10:13 37.614869 -117.517115 138 23007ft 333kts
17-Sep-20 10:13 37.561144 -117.447362 138 23000ft 333kts
17-Sep-20 10:15 37.485878 -117.349899 139 23006ft 333kts
17-Sep-20 10:16 37.420229 -117.269040 151 23001ft 326kts
17-Sep-20 10:17 37.345050 -117.205549 150 23002ft 325kts
17-Sep-20 10:17 37.282684 -117.152729 150 23002ft 325kts
17-Sep-20 10:19 37.195179 -117.078730 150 22952ft 326kts
17-Sep-20 10:19 37.133139 -117.026383 150 22592ft 321kts
17-Sep-20 10:20 37.059633 -116.964512 150 22219ft 317kts
17-Sep-20 10:21 36.987049 -116.903571 150 21899ft 312kts
17-Sep-20 10:22 36.915139 -116.843299 150 21577ft 310kts
17-Sep-20 10:23 36.843342 -116.783270 149 21126ft 313kts
17-Sep-20 10:24 36.776770 -116.713714 135 20946ft 313kts
17-Sep-20 10:25 36.720271 -116.632898 135 21006ft 307kts
17-Sep-20 10:26 36.664276 -116.553152 135 21006ft 306kts
17-Sep-20 10:27 36.608252 -116.473578 135 21006ft 305kts
17-Sep-20 10:28 36.554110 -116.396827 135 21005ft 286kts
17-Sep-20 10:29 36.501743 -116.322825 136 21004ft 285kts
17-Sep-20 10:30 36.449335 -116.248910 136 20825ft 287kts
17-Sep-20 10:31 36.397958 -116.176588 136 19619ft 273kts
17-Sep-20 10:32 36.348869 -116.107646 136 18506ft 263kts
17-Sep-20 10:33 36.299173 -116.038035 135 17405ft 276kts
17-Sep-20 10:34 36.248375 -115.966958 135 15967ft 270kts
17-Sep-20 10:35 36.200463 -115.899062 125 14777ft 261kts
17-Sep-20 10:36 36.173687 -115.816595 115 13478ft 248kts
17-Sep-20 10:37 36.148976 -115.739485 115 12163ft 236kts
17-Sep-20 10:38 36.124903 -115.664708 115 11792ft 233kts
17-Sep-20 10:39 36.099767 -115.586955 115 11579ft 257kts
17-Sep-20 10:40 36.072297 -115.502122 114 11161ft 275kts
17-Sep-20 10:41 36.043764 -115.414188 114 10951ft 265kts
17-Sep-20 10:42 36.027964 -115.332951 99 10293ft 226kts
17-Sep-20 10:43 36.022756 -115.260092 99 9170ft 204kts
17-Sep-20 10:44 36.018161 -115.195927 99 8867ft 180kts
17-Sep-20 10:45 36.012969 -115.130441 99 8010ft 196kts
17-Sep-20 10:46 36.022308 -115.075625 15 7722ft 173kts
17-Sep-20 10:47 36.070975 -115.064473 3 6780ft 177kts
17-Sep-20 10:48 36.115437 -115.061465 353 5916ft 144kts
17-Sep-20 10:49 36.143605 -115.089706 292 4656ft 133kts
17-Sep-20 10:50 36.144245 -115.130357 231 3493ft 127kts
17-Sep-20 10:51 36.113823 -115.148143 207 2590ft 113kts
17-Sep-20 10:52 36.087724 -115.163325 202 2184ft 73kts
17-Sep-20 10:53 36.084082 -115.166130 230 2184ft 9kts
17-Sep-20 10:54 36.082903 -115.168411 357 2184ft 9kts
17-Sep-20 10:55 36.085365 -115.167879 246 2184ft 7kts

Navigation Log

Ident Type
Flight plan parsing failed, navigation log unavailable